Caledon, Canada
Current Conditions -  °F | °C
As of 7:00 AM on Saturday 25 Oct 2014 (Local Time) from CYYZ Reporting Station
Broken Clouds Broken Clouds  
Wind Chill: 48°   Ceiling: 25000
Heat Index: 48°   Visibility: 10mi
Dew Point: 45°   Wind: 2mph
Humidity: 87%   Direction: 220°SW
Pressure: 29.8"   Gusts: NA
Location:  43.87°N, 80°W
Report Text: CYYZ 251100Z 22002KT 10SM FEW045 BKN250 09/07 A2980 RMK SC2CI3 SLP093
Loading
Personal Weather Stations






























Interactive Weather Map New forecast layout! Learn more

10-Day Weather Forecast

Advertisements
Track Severe Weather on mobile